Archival Weather

Murmansk

Murmansk, Russia (ULMM)

Report from: Tuesday, May 21, 2024 8:30 PM MSK
Current time: Monday, June 17, 2024 11:28 AM MSK

Current weather – Weather history – Daily summaries
Weather forecast

Temperature2.0°C (35.6°F)
Wind chill-2.4°C (27.7°F)
Dew point-6.0°C (21.2°F)
Winds 9.7 kts (5 m/s, 11.2 mph) North-Northwest (340°)
Clouds Sky clear
Altimeter30.27 in.Hg (1025 mB)
Precip. events QF 4:41 AM
Relative humidity55 %
Density altitude-1,917 ft. (-584 m)
Remarks Ceiling and visibility OK
No significant changes expected in the next two hours
Flight conditions Visual Meteorological Conditions
Raw dataULMM 211730Z 34005MPS CAVOK 02/M06 Q1025 R31/190061 NOSIG RMK QFE761
An error has occurred. This application may no longer respond until reloaded. Reload 🗙